Time;durP1;ratioP1;P1;durP2;ratioP2;P2;SDS_P1;SDS_P2;PMS_P1;PMS_P2;Temp;Humidity;BMP_temperature;BMP_pressure;BME280_temperature;BME280_humidity;BME280_pressure;Samples;Min_cycle;Max_cycle;Signal;HPM_P1;HPM_P2
2022/05/01 00:02:18;;;;;;;20.00;4.22;;;;;;;;;;5110141;28;20047;-73
2022/05/01 00:04:48;;;;;;;22.35;4.60;;;;;;;;;;5109971;28;20513;-74
2022/05/01 00:07:18;;;;;;;13.13;4.00;;;;;;;;;;5109656;28;20078;-73
2022/05/01 00:09:48;;;;;;;23.38;4.70;;;;;;;;;;5107186;28;20061;-72
2022/05/01 00:12:18;;;;;;;12.93;4.55;;;;;;;;;;5109063;28;20580;-72
2022/05/01 00:14:48;;;;;;;10.23;4.57;;;;;;;;;;5109135;28;20752;-72
2022/05/01 00:17:18;;;;;;;17.33;4.38;;;;;;;;;;5109236;28;20043;-74
2022/05/01 00:19:49;;;;;;;15.17;3.90;;;;;;;;;;5109306;28;20052;-73
2022/05/01 00:22:21;;;;;;;10.20;3.83;;;;;;;;;;5109791;28;20300;-73
2022/05/01 00:24:50;;;;;;;12.20;3.50;;;;;;;;;;5108993;28;20070;-73
2022/05/01 00:27:20;;;;;;;12.20;3.92;;;;;;;;;;5108210;28;20051;-72
2022/05/01 00:29:50;;;;;;;12.80;4.05;;;;;;;;;;5106897;28;20059;-75
2022/05/01 00:32:20;;;;;;;13.07;3.63;;;;;;;;;;5109198;28;20062;-74
2022/05/01 00:37:39;;;;;;;13.18;4.55;;;;;;;;;;5108820;28;20054;-74
2022/05/01 00:40:10;;;;;;;13.30;4.70;;;;;;;;;;5107755;28;20055;-73
2022/05/01 00:42:39;;;;;;;15.43;5.32;;;;;;;;;;5108870;28;20047;-73
2022/05/01 00:45:09;;;;;;;15.60;5.60;;;;;;;;;;5108337;28;20056;-73
2022/05/01 00:47:40;;;;;;;12.82;5.50;;;;;;;;;;5108032;28;20047;-73
2022/05/01 00:50:10;;;;;;;17.13;5.93;;;;;;;;;;5107559;28;20051;-74
2022/05/01 00:52:40;;;;;;;22.00;5.22;;;;;;;;;;5108803;28;20418;-75
2022/05/01 00:55:10;;;;;;;18.30;5.07;;;;;;;;;;5105053;28;20667;-75
2022/05/01 00:57:40;;;;;;;18.80;5.65;;;;;;;;;;5106114;28;20055;-74
2022/05/01 01:00:11;;;;;;;18.75;7.22;;;;;;;;;;5104290;28;20039;-74
2022/05/01 01:02:41;;;;;;;28.25;10.13;;;;;;;;;;5103423;28;20613;-74
2022/05/01 01:05:12;;;;;;;22.00;7.63;;;;;;;;;;5107492;28;20063;-75
2022/05/01 01:07:45;;;;;;;24.45;8.40;;;;;;;;;;5108183;28;20059;-74
2022/05/01 01:10:15;;;;;;;22.88;8.68;;;;;;;;;;5108626;28;20050;-75
2022/05/01 01:12:54;;;;;;;40.03;8.18;;;;;;;;;;5108125;28;20047;-73
2022/05/01 01:15:30;;;;;;;29.60;8.07;;;;;;;;;;5106701;28;20695;-74
2022/05/01 01:18:01;;;;;;;36.10;7.68;;;;;;;;;;5108215;28;20035;-74
2022/05/01 01:20:31;;;;;;;30.95;8.85;;;;;;;;;;5107867;28;20048;-74
2022/05/01 01:23:02;;;;;;;27.80;7.47;;;;;;;;;;5108013;28;20382;-74
2022/05/01 01:25:32;;;;;;;19.42;7.15;;;;;;;;;;5107012;28;20674;-74
2022/05/01 01:28:05;;;;;;;33.72;8.20;;;;;;;;;;5108004;28;20047;-74
2022/05/01 01:33:27;;;;;;;;;;;;;;;;;;5107407;28;20056;-74
2022/05/01 01:36:02;;;;;;;92.65;36.90;;;;;;;;;;5108079;28;19923;-73
2022/05/01 01:38:32;;;;;;;20.70;7.88;;;;;;;;;;5107402;28;20047;-75
2022/05/01 01:41:08;;;;;;;27.15;10.18;;;;;;;;;;5107435;28;20060;-75
2022/05/01 01:43:43;;;;;;;15.10;8.90;;;;;;;;;;5107820;28;20054;-75
2022/05/01 01:46:13;;;;;;;17.45;8.85;;;;;;;;;;5107369;28;20494;-74
2022/05/01 01:48:48;;;;;;;25.48;11.02;;;;;;;;;;5106447;28;20580;-75
2022/05/01 01:51:18;;;;;;;20.35;9.95;;;;;;;;;;5107689;28;20044;-73
2022/05/01 01:53:49;;;;;;;21.45;10.20;;;;;;;;;;5107622;28;20506;-74
2022/05/01 01:56:19;;;;;;;20.95;8.45;;;;;;;;;;5108116;28;20055;-74
2022/05/01 01:58:49;;;;;;;27.08;9.10;;;;;;;;;;5089073;28;20051;-75
2022/05/01 02:01:19;;;;;;;19.83;8.90;;;;;;;;;;5106304;28;20044;-73
2022/05/01 02:03:48;;;;;;;32.42;9.35;;;;;;;;;;5108157;28;20048;-74
2022/05/01 02:06:19;;;;;;;15.93;8.05;;;;;;;;;;5107084;28;20497;-74
2022/05/01 02:08:48;;;;;;;13.85;8.57;;;;;;;;;;5106126;28;20055;-74
2022/05/01 02:11:20;;;;;;;23.98;8.85;;;;;;;;;;5107398;28;20054;-72
2022/05/01 02:13:50;;;;;;;21.75;8.10;;;;;;;;;;5107384;28;20047;-73
2022/05/01 02:16:20;;;;;;;16.83;7.75;;;;;;;;;;5106770;28;20047;-72
2022/05/01 02:18:50;;;;;;;28.58;8.65;;;;;;;;;;5107051;28;20059;-73
2022/05/01 02:21:35;;;;;;;15.27;8.15;;;;;;;;;;5107571;28;20056;-74
2022/05/01 02:24:08;;;;;;;20.95;9.18;;;;;;;;;;5107079;28;20043;-73
2022/05/01 02:26:38;;;;;;;21.30;9.13;;;;;;;;;;5106816;28;20055;-73
2022/05/01 02:29:10;;;;;;;22.25;9.15;;;;;;;;;;5107495;28;20050;-72
2022/05/01 02:31:43;;;;;;;15.90;8.73;;;;;;;;;;5106751;28;20055;-73
2022/05/01 02:34:15;;;;;;;18.40;8.35;;;;;;;;;;5106854;28;20047;-73
2022/05/01 02:36:46;;;;;;;19.55;8.95;;;;;;;;;;5107184;28;20048;-74
2022/05/01 02:39:16;;;;;;;26.15;9.20;;;;;;;;;;5106420;28;20079;-73
2022/05/01 02:41:46;;;;;;;28.85;10.15;;;;;;;;;;5106602;28;20050;-73
2022/05/01 02:44:16;;;;;;;27.52;9.18;;;;;;;;;;5106869;28;20051;-75
2022/05/01 02:46:46;;;;;;;18.17;9.02;;;;;;;;;;5106744;28;21133;-74
2022/05/01 02:49:18;;;;;;;18.75;9.30;;;;;;;;;;5106744;28;20051;-73
2022/05/01 02:51:49;;;;;;;25.30;8.85;;;;;;;;;;5107129;28;20062;-75
2022/05/01 02:54:19;;;;;;;12.27;8.65;;;;;;;;;;5107479;28;20579;-75
2022/05/01 02:56:51;;;;;;;20.85;9.32;;;;;;;;;;5106465;28;20055;-75
2022/05/01 02:59:21;;;;;;;20.02;9.27;;;;;;;;;;5106175;28;20043;-74
2022/05/01 03:01:51;;;;;;;16.60;9.05;;;;;;;;;;5106765;28;20478;-75
2022/05/01 03:04:23;;;;;;;14.68;8.65;;;;;;;;;;5106752;28;20044;-74
2022/05/01 03:06:54;;;;;;;18.73;11.70;;;;;;;;;;5107065;28;20047;-75
2022/05/01 03:09:23;;;;;;;20.58;14.38;;;;;;;;;;5105597;28;20047;-74
2022/05/01 03:11:53;;;;;;;24.73;13.57;;;;;;;;;;5106976;28;20036;-73
2022/05/01 03:14:23;;;;;;;22.83;12.68;;;;;;;;;;5105472;28;20040;-73
2022/05/01 03:17:03;;;;;;;18.25;10.88;;;;;;;;;;5108288;28;20048;-73
2022/05/01 03:22:22;;;;;;;19.88;9.15;;;;;;;;;;5111244;28;20062;-75
2022/05/01 03:24:52;;;;;;;18.27;9.55;;;;;;;;;;5110315;28;20549;-75
2022/05/01 03:27:22;;;;;;;14.15;9.02;;;;;;;;;;5110519;28;20047;-73
2022/05/01 03:30:35;;;;;;;25.00;9.30;;;;;;;;;;5110683;28;20054;-73
2022/05/01 03:32:45;;;;;;;19.05;9.35;;;;;;;;;;5102960;28;20063;-74
2022/05/01 03:35:17;;;;;;;16.77;8.52;;;;;;;;;;5110795;28;20052;-75
2022/05/01 03:37:47;;;;;;;17.08;8.68;;;;;;;;;;5110538;28;20681;-75
2022/05/01 03:40:17;;;;;;;12.77;8.30;;;;;;;;;;5110541;28;20414;-73
2022/05/01 03:42:47;;;;;;;15.43;7.78;;;;;;;;;;5110098;28;20047;-75
2022/05/01 03:45:16;;;;;;;15.95;9.57;;;;;;;;;;5110315;28;20383;-74
2022/05/01 03:47:46;;;;;;;16.77;8.48;;;;;;;;;;5110223;28;20059;-72
2022/05/01 03:50:16;;;;;;;17.13;8.80;;;;;;;;;;5110587;28;20044;-72
2022/05/01 03:52:47;;;;;;;25.70;7.93;;;;;;;;;;5109007;28;20046;-74
2022/05/01 03:55:17;;;;;;;18.55;8.45;;;;;;;;;;5109763;28;20040;-75
2022/05/01 03:57:46;;;;;;;19.92;8.70;;;;;;;;;;5109839;28;20050;-75
2022/05/01 04:00:19;;;;;;;14.52;7.63;;;;;;;;;;5110392;28;20051;-75
2022/05/01 04:02:49;;;;;;;22.55;9.10;;;;;;;;;;5109789;28;21034;-73
2022/05/01 04:05:19;;;;;;;12.43;8.65;;;;;;;;;;5109798;28;20058;-75
2022/05/01 04:07:49;;;;;;;17.50;8.85;;;;;;;;;;5109457;28;20070;-76
2022/05/01 04:10:19;;;;;;;21.33;10.80;;;;;;;;;;5110053;28;20044;-75
2022/05/01 04:12:49;;;;;;;23.88;11.00;;;;;;;;;;5109647;28;20066;-74
2022/05/01 04:15:19;;;;;;;15.02;10.35;;;;;;;;;;5110399;28;20042;-74
2022/05/01 04:17:49;;;;;;;18.92;10.65;;;;;;;;;;5109024;28;20054;-75
2022/05/01 04:20:19;;;;;;;21.95;11.60;;;;;;;;;;5109241;28;20417;-73
2022/05/01 04:22:50;;;;;;;20.13;11.32;;;;;;;;;;5109877;28;20043;-74
2022/05/01 04:25:24;;;;;;;18.63;11.57;;;;;;;;;;5109852;28;20054;-72
2022/05/01 04:28:00;;;;;;;19.65;11.45;;;;;;;;;;5108903;28;20125;-74
2022/05/01 04:30:33;;;;;;;18.23;11.60;;;;;;;;;;5109566;28;20046;-74
2022/05/01 04:33:09;;;;;;;23.75;11.68;;;;;;;;;;5109164;28;20070;-73
2022/05/01 04:35:42;;;;;;;19.00;11.88;;;;;;;;;;5109447;28;20040;-73
2022/05/01 04:38:22;;;;;;;16.67;9.57;;;;;;;;;;5109438;28;20048;-73
2022/05/01 04:40:55;;;;;;;15.25;9.85;;;;;;;;;;5109051;28;20063;-73
2022/05/01 04:43:30;;;;;;;23.95;9.82;;;;;;;;;;5107190;28;20446;-74
2022/05/01 04:46:00;;;;;;;20.70;10.95;;;;;;;;;;5109159;28;20745;-75
2022/05/01 04:48:30;;;;;;;12.48;9.52;;;;;;;;;;5109288;28;20052;-74
2022/05/01 04:51:00;;;;;;;22.42;11.15;;;;;;;;;;5108926;28;20039;-75
2022/05/01 04:53:30;;;;;;;12.90;9.05;;;;;;;;;;5108821;28;20050;-74
2022/05/01 04:57:04;;;;;;;15.98;9.80;;;;;;;;;;5108757;28;20066;-73
2022/05/01 04:58:50;;;;;;;23.15;9.55;;;;;;;;;;5108566;28;20070;-73
2022/05/01 05:01:20;;;;;;;18.02;9.60;;;;;;;;;;5108450;28;20047;-74
2022/05/01 05:03:50;;;;;;;13.32;9.23;;;;;;;;;;5108779;28;20406;-74
2022/05/01 05:06:23;;;;;;;15.68;8.98;;;;;;;;;;5108946;28;20043;-74
2022/05/01 05:11:41;;;;;;;21.02;10.07;;;;;;;;;;5108287;28;20521;-73
2022/05/01 05:14:11;;;;;;;20.27;10.65;;;;;;;;;;5105529;28;20055;-74
2022/05/01 05:16:41;;;;;;;30.45;10.80;;;;;;;;;;5108295;28;20058;-73
2022/05/01 05:19:11;;;;;;;20.45;11.10;;;;;;;;;;5108967;28;20044;-73
2022/05/01 05:21:41;;;;;;;25.20;11.55;;;;;;;;;;5107760;28;20039;-74
2022/05/01 05:24:20;;;;;;;25.63;11.40;;;;;;;;;;5107714;28;20051;-73
2022/05/01 05:26:50;;;;;;;23.85;11.52;;;;;;;;;;5105885;28;20066;-73
2022/05/01 05:29:21;;;;;;;19.30;11.90;;;;;;;;;;5108410;28;20043;-74
2022/05/01 05:31:51;;;;;;;24.58;10.07;;;;;;;;;;5105998;28;20052;-74
2022/05/01 05:34:21;;;;;;;17.35;10.23;;;;;;;;;;5108034;28;20153;-72
2022/05/01 05:36:51;;;;;;;22.20;9.43;;;;;;;;;;5108025;28;20047;-73
2022/05/01 05:39:20;;;;;;;18.85;9.23;;;;;;;;;;5107612;28;20054;-73
2022/05/01 05:41:50;;;;;;;23.20;8.85;;;;;;;;;;5107058;28;20493;-74
2022/05/01 05:44:20;;;;;;;16.52;9.18;;;;;;;;;;5108086;28;20047;-73
2022/05/01 05:46:50;;;;;;;21.35;9.93;;;;;;;;;;5107809;28;20580;-74
2022/05/01 05:49:21;;;;;;;24.85;9.68;;;;;;;;;;5107726;28;20043;-73
2022/05/01 05:51:51;;;;;;;25.80;10.13;;;;;;;;;;5106847;28;20054;-74
2022/05/01 05:54:21;;;;;;;21.15;10.82;;;;;;;;;;5107414;28;20043;-74
2022/05/01 05:56:50;;;;;;;22.38;10.70;;;;;;;;;;5106268;28;20052;-74
2022/05/01 05:59:20;;;;;;;16.33;11.25;;;;;;;;;;5107292;28;20050;-73
2022/05/01 06:01:50;;;;;;;24.08;11.23;;;;;;;;;;5107447;28;20058;-73
2022/05/01 06:04:20;;;;;;;25.05;12.55;;;;;;;;;;5108102;28;20513;-73
2022/05/01 06:06:51;;;;;;;22.33;14.45;;;;;;;;;;5107437;28;20052;-73
2022/05/01 06:09:20;;;;;;;27.80;14.77;;;;;;;;;;5107265;28;20048;-73
2022/05/01 06:11:51;;;;;;;24.17;14.20;;;;;;;;;;5107534;28;20059;-73
2022/05/01 06:14:21;;;;;;;22.35;14.93;;;;;;;;;;5107240;28;20043;-74
2022/05/01 06:16:51;;;;;;;26.25;16.65;;;;;;;;;;5107164;28;20490;-73
2022/05/01 06:19:21;;;;;;;30.60;17.55;;;;;;;;;;5106099;28;20054;-73
2022/05/01 06:21:51;;;;;;;25.38;16.65;;;;;;;;;;5105992;28;20043;-73
2022/05/01 06:24:21;;;;;;;23.88;16.38;;;;;;;;;;5107774;28;20425;-73
2022/05/01 06:26:51;;;;;;;29.02;18.13;;;;;;;;;;5106445;28;20530;-72
2022/05/01 06:29:21;;;;;;;31.77;18.20;;;;;;;;;;5106525;28;20047;-73
2022/05/01 06:31:52;;;;;;;32.38;17.15;;;;;;;;;;5106867;28;20044;-72
2022/05/01 06:34:21;;;;;;;;;;;;;;;;;;5107331;28;20051;-72
2022/05/01 06:36:53;;;;;;;29.90;17.17;;;;;;;;;;5106520;28;19919;-74
2022/05/01 06:39:23;;;;;;;29.42;17.10;;;;;;;;;;5106177;28;20047;-75
2022/05/01 06:41:54;;;;;;;24.60;16.13;;;;;;;;;;5106573;28;20415;-74
2022/05/01 06:44:26;;;;;;;24.65;16.75;;;;;;;;;;5104919;28;20510;-74
2022/05/01 06:46:56;;;;;;;27.17;16.40;;;;;;;;;;5107328;28;20080;-74
2022/05/01 06:49:26;;;;;;;33.70;16.98;;;;;;;;;;5107379;28;20040;-74
2022/05/01 06:51:56;;;;;;;27.35;15.93;;;;;;;;;;5105676;28;20403;-73
2022/05/01 06:54:26;;;;;;;25.05;16.30;;;;;;;;;;5105370;28;20047;-73
2022/05/01 06:56:56;;;;;;;37.22;16.20;;;;;;;;;;5106061;28;20048;-74
2022/05/01 06:59:26;;;;;;;33.20;17.00;;;;;;;;;;5106236;28;20051;-74
2022/05/01 07:01:55;;;;;;;35.53;16.88;;;;;;;;;;5105765;28;20046;-75
2022/05/01 07:04:25;;;;;;;33.30;16.95;;;;;;;;;;5104528;28;20039;-74
2022/05/01 07:06:55;;;;;;;29.30;14.95;;;;;;;;;;5106045;28;20548;-73
2022/05/01 07:09:26;;;;;;;23.25;14.57;;;;;;;;;;5106206;28;20055;-73
2022/05/01 07:11:57;;;;;;;24.13;13.70;;;;;;;;;;5106038;28;20036;-73
2022/05/01 07:14:27;;;;;;;18.70;12.77;;;;;;;;;;5104904;28;20055;-75
2022/05/01 07:16:57;;;;;;;19.83;12.45;;;;;;;;;;5106382;28;20088;-73
2022/05/01 07:19:27;;;;;;;23.00;11.70;;;;;;;;;;5105263;28;20490;-74
2022/05/01 07:21:57;;;;;;;20.40;11.13;;;;;;;;;;5106566;28;20040;-73
2022/05/01 07:24:26;;;;;;;19.55;11.73;;;;;;;;;;5105978;28;20478;-75
2022/05/01 07:26:56;;;;;;;16.45;10.48;;;;;;;;;;5106160;28;20051;-74
2022/05/01 07:29:26;;;;;;;28.88;12.25;;;;;;;;;;5107133;28;20048;-74
2022/05/01 07:31:56;;;;;;;18.40;9.20;;;;;;;;;;5105742;28;20060;-73
2022/05/01 07:34:26;;;;;;;11.13;8.43;;;;;;;;;;5106464;28;20055;-76
2022/05/01 07:36:56;;;;;;;15.23;8.43;;;;;;;;;;5106123;28;20040;-75
2022/05/01 07:39:26;;;;;;;11.63;7.72;;;;;;;;;;5106331;28;20052;-75
2022/05/01 07:41:56;;;;;;;19.75;8.40;;;;;;;;;;5106143;28;20052;-75
2022/05/01 07:44:26;;;;;;;21.20;8.73;;;;;;;;;;5106343;28;20054;-74
2022/05/01 07:46:57;;;;;;;15.85;8.52;;;;;;;;;;5106958;28;20054;-73
2022/05/01 07:49:27;;;;;;;12.75;7.53;;;;;;;;;;5106017;28;20506;-74
2022/05/01 07:51:57;;;;;;;11.60;7.97;;;;;;;;;;5106529;28;20051;-74
2022/05/01 07:54:27;;;;;;;16.02;9.00;;;;;;;;;;5106060;28;20505;-74
2022/05/01 07:56:57;;;;;;;11.38;8.05;;;;;;;;;;5106234;28;20048;-74
2022/05/01 07:59:27;;;;;;;16.48;10.13;;;;;;;;;;5106774;28;20501;-74
2022/05/01 08:02:01;;;;;;;14.52;9.73;;;;;;;;;;5105879;28;20048;-73
2022/05/01 08:04:33;;;;;;;16.38;9.57;;;;;;;;;;5108050;28;20032;-73
2022/05/01 08:07:04;;;;;;;20.67;10.07;;;;;;;;;;5109942;28;20043;-74
2022/05/01 08:09:34;;;;;;;15.85;9.15;;;;;;;;;;5109100;28;20041;-74
2022/05/01 08:12:04;;;;;;;20.80;11.15;;;;;;;;;;5109575;28;20606;-73
2022/05/01 08:14:35;;;;;;;19.40;10.73;;;;;;;;;;5109621;28;20051;-73
2022/05/01 08:17:06;;;;;;;20.80;11.57;;;;;;;;;;5107902;28;20510;-73
2022/05/01 08:22:24;;;;;;;21.77;11.68;;;;;;;;;;5108775;28;20039;-73
2022/05/01 08:24:56;;;;;;;18.75;11.07;;;;;;;;;;5108924;28;20047;-75
2022/05/01 08:27:26;;;;;;;14.55;11.43;;;;;;;;;;5108453;28;20060;-73
2022/05/01 08:29:55;;;;;;;18.88;11.35;;;;;;;;;;5108854;28;20066;-74
2022/05/01 08:32:26;;;;;;;19.05;11.07;;;;;;;;;;5108337;28;20086;-73
2022/05/01 08:34:56;;;;;;;18.88;10.88;;;;;;;;;;5109005;28;20055;-73
2022/05/01 08:37:26;;;;;;;16.48;9.65;;;;;;;;;;5107715;28;20399;-73
2022/05/01 08:39:56;;;;;;;16.15;10.50;;;;;;;;;;5108454;28;20521;-75
2022/05/01 08:42:28;;;;;;;20.75;11.20;;;;;;;;;;5106969;28;20059;-75
2022/05/01 08:45:01;;;;;;;21.58;11.15;;;;;;;;;;5108392;28;20048;-74
2022/05/01 08:47:57;;;;;;;15.57;10.55;;;;;;;;;;5108687;28;20054;-74
2022/05/01 08:50:28;;;;;;;16.58;9.63;;;;;;;;;;5107885;28;20047;-74
2022/05/01 08:53:02;;;;;;;25.77;10.55;;;;;;;;;;5108744;28;20054;-74
2022/05/01 08:55:33;;;;;;;17.98;10.95;;;;;;;;;;5108131;28;20051;-75
2022/05/01 08:58:04;;;;;;;26.00;11.38;;;;;;;;;;5108344;28;20047;-72
2022/05/01 09:00:34;;;;;;;;;;;;;;;;;;5107622;28;20055;-74
2022/05/01 09:03:05;;;;;;;14.63;10.07;;;;;;;;;;5108168;28;19931;-73
2022/05/01 09:05:36;;;;;;;24.52;13.07;;;;;;;;;;5108813;28;20052;-74
2022/05/01 09:08:06;;;;;;;26.25;12.82;;;;;;;;;;5107961;28;20039;-74
2022/05/01 09:10:40;;;;;;;24.95;14.40;;;;;;;;;;5107499;28;20058;-73
2022/05/01 09:13:10;;;;;;;22.75;14.52;;;;;;;;;;5108589;28;20048;-74
2022/05/01 09:15:46;;;;;;;26.90;15.65;;;;;;;;;;5107198;28;20062;-73
2022/05/01 09:18:18;;;;;;;27.35;15.77;;;;;;;;;;5107319;28;20593;-73
2022/05/01 09:21:03;;;;;;;28.35;17.15;;;;;;;;;;5107903;28;20516;-73
2022/05/01 09:23:44;;;;;;;28.73;16.73;;;;;;;;;;5107926;28;20047;-75
2022/05/01 09:26:19;;;;;;;46.15;16.85;;;;;;;;;;5107844;28;20095;-72
2022/05/01 09:28:52;;;;;;;25.60;15.50;;;;;;;;;;5107614;28;20383;-73
2022/05/01 09:31:45;;;;;;;29.00;16.75;;;;;;;;;;5107697;28;20083;-75
2022/05/01 09:34:26;;;;;;;29.55;15.80;;;;;;;;;;5107472;28;20040;-73
2022/05/01 09:36:59;;;;;;;26.92;16.85;;;;;;;;;;5107157;28;20650;-74
2022/05/01 09:39:32;;;;;;;26.77;15.85;;;;;;;;;;5107349;28;20051;-74
2022/05/01 09:42:18;;;;;;;26.30;16.30;;;;;;;;;;5106371;28;20050;-74
2022/05/01 09:45:08;;;;;;;35.22;16.05;;;;;;;;;;5107207;28;20044;-73
2022/05/01 09:47:43;;;;;;;31.13;16.13;;;;;;;;;;5107008;28;20078;-74
2022/05/01 09:50:16;;;;;;;25.20;15.75;;;;;;;;;;5107472;28;20047;-74
2022/05/01 09:52:55;;;;;;;29.55;16.25;;;;;;;;;;5107133;28;20051;-74
2022/05/01 09:55:27;;;;;;;30.38;16.38;;;;;;;;;;5107206;28;20497;-73
2022/05/01 09:58:10;;;;;;;27.65;15.75;;;;;;;;;;5108064;28;20070;-73
2022/05/01 10:00:46;;;;;;;33.65;16.23;;;;;;;;;;5106930;28;20044;-75
2022/05/01 10:03:27;;;;;;;29.88;15.90;;;;;;;;;;5106207;28;20425;-74
2022/05/01 10:05:59;;;;;;;31.27;15.73;;;;;;;;;;5107044;28;20047;-75
2022/05/01 10:08:30;;;;;;;40.17;16.27;;;;;;;;;;5106458;28;20043;-74
2022/05/01 10:11:00;;;;;;;29.58;17.63;;;;;;;;;;5107137;28;20807;-74
2022/05/01 10:13:31;;;;;;;30.85;17.90;;;;;;;;;;5105887;28;20052;-73
2022/05/01 10:16:11;;;;;;;40.00;17.23;;;;;;;;;;5103841;28;20047;-72
2022/05/01 10:18:49;;;;;;;29.98;16.88;;;;;;;;;;5106440;28;20047;-73
2022/05/01 10:21:40;;;;;;;25.42;14.95;;;;;;;;;;5107046;28;20040;-73
2022/05/01 10:24:10;;;;;;;22.52;15.90;;;;;;;;;;5105015;28;20103;-74
2022/05/01 10:27:05;;;;;;;25.20;15.48;;;;;;;;;;5105990;28;20052;-75
2022/05/01 10:32:51;;;;;;;31.63;16.02;;;;;;;;;;5105536;28;20051;-73
2022/05/01 10:35:52;;;;;;;28.90;15.70;;;;;;;;;;5106033;28;20051;-73
2022/05/01 10:38:47;;;;;;;30.25;15.40;;;;;;;;;;5105935;28;20043;-75
2022/05/01 10:41:18;;;;;;;28.65;14.85;;;;;;;;;;5105739;28;20051;-74
2022/05/01 10:43:57;;;;;;;25.10;15.23;;;;;;;;;;5106307;28;20070;-73
2022/05/01 10:46:29;;;;;;;28.73;16.10;;;;;;;;;;5106264;28;20059;-74
2022/05/01 10:49:06;;;;;;;34.67;17.10;;;;;;;;;;5106713;28;20044;-72
2022/05/01 10:51:37;;;;;;;30.13;14.98;;;;;;;;;;5105875;28;20043;-72
2022/05/01 10:54:19;;;;;;;22.88;13.55;;;;;;;;;;5105796;28;20418;-75
2022/05/01 10:57:06;;;;;;;21.38;13.90;;;;;;;;;;5105974;28;20055;-74
2022/05/01 10:59:49;;;;;;;17.02;12.52;;;;;;;;;;5104510;28;20054;-75
2022/05/01 11:02:22;;;;;;;;;;;;;;;;;;5106585;28;20047;-72
2022/05/01 11:04:53;;;;;;;19.88;12.23;;;;;;;;;;5106106;28;19919;-75
2022/05/01 11:07:25;;;;;;;;;;;;;;;;;;5106299;28;20755;-74
2022/05/01 11:09:56;;;;;;;;;;;;;;;;;;5106059;28;19923;-73
2022/05/01 11:12:28;;;;;;;19.25;12.98;;;;;;;;;;5104237;28;19931;-74
2022/05/01 11:15:11;;;;;;;18.80;13.68;;;;;;;;;;5102603;28;20055;-73
2022/05/01 11:17:42;;;;;;;23.52;12.63;;;;;;;;;;5102617;28;20051;-73
2022/05/01 11:20:14;;;;;;;;;;;;;;;;;;5103171;28;20058;-75
2022/05/01 11:22:45;;;;;;;17.85;12.20;;;;;;;;;;5106232;28;19931;-73
2022/05/01 11:25:39;;;;;;;18.27;14.00;;;;;;;;;;5106359;28;20044;-73
2022/05/01 11:28:10;;;;;;;15.07;11.65;;;;;;;;;;5106318;28;20051;-73
2022/05/01 11:30:39;;;;;;;15.32;11.68;;;;;;;;;;5106566;28;20051;-73
2022/05/01 11:33:11;;;;;;;14.57;12.27;;;;;;;;;;5106609;28;20051;-74
2022/05/01 11:36:00;;;;;;;13.80;11.68;;;;;;;;;;5106297;28;20052;-74
2022/05/01 11:38:53;;;;;;;14.02;11.25;;;;;;;;;;5108476;28;20043;-74
2022/05/01 11:41:42;;;;;;;14.85;10.55;;;;;;;;;;5110830;28;20040;-74
2022/05/01 11:44:20;;;;;;;11.80;9.35;;;;;;;;;;5109395;28;20434;-74
2022/05/01 11:46:55;;;;;;;10.55;9.05;;;;;;;;;;5110906;28;20039;-73
2022/05/01 11:49:28;;;;;;;11.02;9.55;;;;;;;;;;5109820;28;20040;-74
2022/05/01 11:51:59;;;;;;;9.88;8.88;;;;;;;;;;5109213;28;20048;-73
2022/05/01 11:54:31;;;;;;;10.05;7.90;;;;;;;;;;5109322;28;20047;-74
2022/05/01 12:02:38;;;;;;;14.85;10.13;;;;;;;;;;5109437;28;20409;-74
2022/05/01 12:05:10;;;;;;;13.13;8.30;;;;;;;;;;5109289;28;20040;-73
2022/05/01 12:07:41;;;;;;;8.57;7.22;;;;;;;;;;5109382;28;20640;-74
2022/05/01 12:10:12;;;;;;;10.02;8.10;;;;;;;;;;5110121;28;20047;-72
2022/05/01 12:12:42;;;;;;;16.58;7.95;;;;;;;;;;5109414;28;20055;-73
2022/05/01 12:15:12;;;;;;;11.75;7.25;;;;;;;;;;5108534;28;20068;-73
2022/05/01 12:17:43;;;;;;;12.50;7.82;;;;;;;;;;5109536;28;20047;-74
2022/05/01 12:20:13;;;;;;;9.38;6.50;;;;;;;;;;5109501;28;20051;-73
2022/05/01 12:22:43;;;;;;;11.98;8.50;;;;;;;;;;5109177;28;20063;-73
2022/05/01 12:25:14;;;;;;;7.80;6.57;;;;;;;;;;5108634;28;20482;-74
2022/05/01 12:27:47;;;;;;;7.35;6.65;;;;;;;;;;5108301;28;20059;-73
2022/05/01 12:30:26;;;;;;;6.93;4.82;;;;;;;;;;5107466;28;20043;-73
2022/05/01 12:32:58;;;;;;;4.28;3.88;;;;;;;;;;5107316;28;20514;-72
2022/05/01 12:35:28;;;;;;;;;;;;;;;;;;5108450;28;20047;-74
2022/05/01 12:37:59;;;;;;;4.13;3.35;;;;;;;;;;5105567;28;19931;-73
2022/05/01 12:46:23;;;;;;;5.80;4.13;;;;;;;;;;5108620;28;20411;-74
2022/05/01 12:48:53;;;;;;;6.10;5.30;;;;;;;;;;5107539;28;20111;-75
2022/05/01 12:51:41;;;;;;;7.43;4.82;;;;;;;;;;5106616;28;20617;-74
2022/05/01 12:54:18;;;;;;;5.35;4.80;;;;;;;;;;5106616;28;20506;-73
2022/05/01 12:56:49;;;;;;;4.75;3.95;;;;;;;;;;5108744;28;20046;-73
2022/05/01 12:59:30;;;;;;;6.53;3.83;;;;;;;;;;5106955;28;20051;-74
2022/05/01 13:02:01;;;;;;;5.75;4.15;;;;;;;;;;5107507;28;20063;-73
2022/05/01 13:04:32;;;;;;;4.07;3.60;;;;;;;;;;5109496;28;20039;-73
2022/05/01 13:07:02;;;;;;;4.30;3.90;;;;;;;;;;5108471;28;20062;-75
2022/05/01 13:09:49;;;;;;;4.90;4.38;;;;;;;;;;5108442;28;20046;-73
2022/05/01 13:12:30;;;;;;;9.90;3.60;;;;;;;;;;5108494;28;20035;-74
2022/05/01 13:15:04;;;;;;;5.30;3.50;;;;;;;;;;5108057;28;20040;-75
2022/05/01 13:17:36;;;;;;;6.00;3.53;;;;;;;;;;5107484;28;20505;-74
2022/05/01 13:20:06;;;;;;;4.65;3.67;;;;;;;;;;5106764;28;20040;-74
2022/05/01 13:22:37;;;;;;;5.72;3.60;;;;;;;;;;5108683;28;20050;-73
2022/05/01 13:25:12;;;;;;;9.88;5.95;;;;;;;;;;5108114;28;20040;-74
2022/05/01 13:27:42;;;;;;;7.15;5.00;;;;;;;;;;5107995;28;20066;-74
2022/05/01 13:30:13;;;;;;;6.93;5.22;;;;;;;;;;5108787;28;20066;-73
2022/05/01 13:32:42;;;;;;;5.50;4.10;;;;;;;;;;5107670;28;20050;-77
2022/05/01 13:35:12;;;;;;;9.15;6.20;;;;;;;;;;5108222;28;20040;-72
2022/05/01 13:37:42;;;;;;;5.57;3.75;;;;;;;;;;5107782;28;20071;-74
2022/05/01 13:45:49;;;;;;;5.05;4.05;;;;;;;;;;5108137;28;20101;-74
2022/05/01 13:48:19;;;;;;;6.30;3.55;;;;;;;;;;5107531;28;20047;-74
2022/05/01 13:50:49;;;;;;;5.65;4.70;;;;;;;;;;5107377;28;20035;-76
2022/05/01 13:53:19;;;;;;;6.47;5.13;;;;;;;;;;5107647;28;20047;-74
2022/05/01 13:55:48;;;;;;;5.45;4.00;;;;;;;;;;5107809;28;20044;-73
2022/05/01 13:58:18;;;;;;;4.80;3.38;;;;;;;;;;5108008;28;20063;-72
2022/05/01 14:00:48;;;;;;;8.20;5.03;;;;;;;;;;5107378;28;20055;-74
2022/05/01 14:03:19;;;;;;;3.83;3.10;;;;;;;;;;5107780;28;20391;-75
2022/05/01 14:05:49;;;;;;;17.08;3.78;;;;;;;;;;5106522;28;20047;-72
2022/05/01 14:08:18;;;;;;;6.70;3.28;;;;;;;;;;5105556;28;20047;-75
2022/05/01 14:10:48;;;;;;;4.72;3.17;;;;;;;;;;5106897;28;20047;-74
2022/05/01 14:13:18;;;;;;;7.68;3.90;;;;;;;;;;5106904;28;20047;-73
2022/05/01 14:15:48;;;;;;;6.47;4.32;;;;;;;;;;5106834;28;20044;-73
2022/05/01 14:18:20;;;;;;;5.47;3.85;;;;;;;;;;5105660;28;20425;-73
2022/05/01 14:20:52;;;;;;;5.78;3.90;;;;;;;;;;5106798;28;20044;-77
2022/05/01 14:23:21;;;;;;;;;;;;;;;;;;5108149;28;20058;-73
2022/05/01 14:25:51;;;;;;;5.90;2.33;;;;;;;;;;5106902;28;19919;-73
2022/05/01 14:28:21;;;;;;;13.45;3.60;;;;;;;;;;5107122;28;20048;-74
2022/05/01 14:31:10;;;;;;;6.57;2.65;;;;;;;;;;5105096;28;20593;-73
2022/05/01 14:33:51;;;;;;;3.20;2.50;;;;;;;;;;5106184;28;20040;-75
2022/05/01 14:36:28;;;;;;;5.10;2.05;;;;;;;;;;5106862;28;20043;-73
2022/05/01 14:39:05;;;;;;;3.38;2.50;;;;;;;;;;5105684;28;20047;-75
2022/05/01 14:41:55;;;;;;;6.60;2.47;;;;;;;;;;5106420;28;20406;-74
2022/05/01 14:44:32;;;;;;;2.72;2.15;;;;;;;;;;5104324;28;20055;-74
2022/05/01 14:47:04;;;;;;;5.68;2.03;;;;;;;;;;5106661;28;20046;-75
2022/05/01 14:49:45;;;;;;;4.10;2.35;;;;;;;;;;5106955;28;20379;-74
2022/05/01 14:52:17;;;;;;;3.25;2.25;;;;;;;;;;5106580;28;20047;-73
2022/05/01 14:54:47;;;;;;;;;;;;;;;;;;5107666;28;20055;-72
2022/05/01 14:57:20;;;;;;;4.63;2.40;;;;;;;;;;5106246;28;19949;-75
2022/05/01 15:08:29;;;;;;;4.20;1.92;;;;;;;;;;5105578;28;20051;-74
2022/05/01 15:11:00;;;;;;;6.97;4.35;;;;;;;;;;5102145;28;20039;-73
2022/05/01 15:13:30;;;;;;;6.70;3.35;;;;;;;;;;5104168;28;20055;-75
2022/05/01 15:16:30;;;;;;;2.57;2.20;;;;;;;;;;5110460;28;20051;-75
2022/05/01 15:19:28;;;;;;;3.55;2.22;;;;;;;;;;5110874;28;20059;-75
2022/05/01 15:22:42;;;;;;;9.65;5.53;;;;;;;;;;5110521;28;20062;-74
2022/05/01 15:25:18;;;;;;;1.95;1.83;;;;;;;;;;5046566;28;20059;-74
2022/05/01 15:27:51;;;;;;;4.13;2.10;;;;;;;;;;5106845;28;20888;-74
2022/05/01 15:30:44;;;;;;;5.78;3.95;;;;;;;;;;5110169;28;20039;-72
2022/05/01 15:36:35;;;;;;;10.45;4.82;;;;;;;;;;5109656;28;20043;-72
2022/05/01 15:39:11;;;;;;;5.22;2.90;;;;;;;;;;5097676;28;20514;-73
2022/05/01 15:41:48;;;;;;;5.13;2.38;;;;;;;;;;5110555;28;20054;-75
2022/05/01 15:44:18;;;;;;;3.90;2.40;;;;;;;;;;5109675;28;20039;-73
2022/05/01 15:46:58;;;;;;;5.88;2.80;;;;;;;;;;5110187;28;20051;-75
2022/05/01 15:55:11;;;;;;;4.05;3.47;;;;;;;;;;5109513;28;20062;-74
2022/05/01 15:57:43;;;;;;;3.90;3.20;;;;;;;;;;5109764;28;20055;-75